Pemberton, Canada
Current Conditions -  °F | °C
As of 6:00 PM on Saturday 25 Oct 2014 (Local Time) from CWAE Reporting Station
Rain Showers Rain Showers  
Wind Chill: 39°   Ceiling: 2900
Heat Index: 39°   Visibility: 15mi
Dew Point: 37°   Wind: 0mph
Humidity: 93%   Direction: NA
Pressure: 29.36"   Gusts: NA
Location:  50.32°N, 122.8°W
Report Text: CWAE 260100Z 00000KT 15SM -SHRA SCT006 OVC029 04/03 A2936 RMK SC3SC5 LAST OBS/NEXT 261300UTC SLP953
Loading
Personal Weather Stations






























Interactive Weather Map
Tropical Storm Tracking
New forecast layout! Learn more

10-Day Weather Forecast

Advertisements
Track Severe Weather on mobile